Aérodrome :
LOGIN :

S'inscrire | Disclaimer

   EN    FR    IT 

 










Légende :    VFR   VFR Marginal   IFR   IFR Intensif   IFR Très Intensif
Visi : 
Plafond : 
>= 8 km
>= 3000ft
5 à 8 km
1000 à 3000 ft
1500m à 5 km
500 à 1000 ft
800 à 1500m
200 à 500 ft
< 800m
< 200 ft
Symboles :   Orages  Brouillard  Fortes neiges  Fortes précipitations  Vent > 20 kt
SIGMETs :   Divers  Orages  Givrage  Turbulence  Onde Orograph.  Cendres Volcan.






- Altitude de l'aérodrome : 34 ft
- Code IATA : BLK


EGNH - Blackpool

DERNIER METAR :
  • 261520Z 27008KT 9999 FEW022 SCT028 BKN042 07/06 Q1002

METARs EXPIRÉS :
  • 261450Z 27010KT 9999 FEW020 SCT027 BKN037 08/06 Q1003
  • 261420Z 28012KT 9999 SCT047 08/06 Q1003
  • 261350Z 27012KT 9999 SCT047 08/07 Q1003
  • 261320Z 24007KT 9999 SCT045 08/07 Q1003
  • 261250Z 23009KT 9999 BKN046 08/08 Q1002

TAF TAF EGNH
Valide du 26 à 15h jusqu'au 26 à 21h UTC


261353Z 2615/2621 27010KT 9999 SCT020 BKN030
BECMG 2618/2621 18006KT CAVOK
TEMPO 2618/2621 9000
ATIS : +44 1253 343 434 (x8315)



MET'MAP, la Météo Aéronautique d'un coup d'oeil ! - Copyright ORBIFLY Décembre 2007 - Disclaimer

ORBIFLY MET'MAP TEAM :

Programmation & Développement : Alexandra Zaïnal
Sur une idée originale de : Baudouin d'Aumeries
Assistance à la programmation : Marc-Olivier Méhu
Soutien technique & logistique : Manuel Goepfert

Contact : metmap@orbifly.com




SOURCES & CREDITS :

   NOAA